sensor_id;sensor_type;location;lat;lon;timestamp;P1;durP1;ratioP1;P2;durP2;ratioP2
57047;SDS011;42934;54.294;18.598;2023-02-08T00:02:03;17.10;;;9.65;;
57047;SDS011;42934;54.294;18.598;2023-02-08T00:04:32;15.90;;;8.57;;
57047;SDS011;42934;54.294;18.598;2023-02-08T00:07:01;14.80;;;8.82;;
57047;SDS011;42934;54.294;18.598;2023-02-08T00:09:30;12.90;;;7.97;;
57047;SDS011;42934;54.294;18.598;2023-02-08T00:12:00;15.20;;;8.65;;
57047;SDS011;42934;54.294;18.598;2023-02-08T00:14:30;13.43;;;7.87;;
57047;SDS011;42934;54.294;18.598;2023-02-08T00:17:00;12.82;;;7.40;;
57047;SDS011;42934;54.294;18.598;2023-02-08T00:19:29;13.13;;;8.07;;
57047;SDS011;42934;54.294;18.598;2023-02-08T00:21:58;16.80;;;8.25;;
57047;SDS011;42934;54.294;18.598;2023-02-08T00:24:27;13.68;;;7.55;;
57047;SDS011;42934;54.294;18.598;2023-02-08T00:26:56;11.35;;;7.40;;
57047;SDS011;42934;54.294;18.598;2023-02-08T00:29:26;11.38;;;7.10;;
57047;SDS011;42934;54.294;18.598;2023-02-08T00:31:56;11.93;;;6.70;;
57047;SDS011;42934;54.294;18.598;2023-02-08T00:34:26;9.95;;;7.18;;
57047;SDS011;42934;54.294;18.598;2023-02-08T00:36:55;9.80;;;6.63;;
57047;SDS011;42934;54.294;18.598;2023-02-08T00:39:24;12.48;;;7.53;;
57047;SDS011;42934;54.294;18.598;2023-02-08T00:41:53;13.75;;;6.80;;
57047;SDS011;42934;54.294;18.598;2023-02-08T00:44:22;13.45;;;6.88;;
57047;SDS011;42934;54.294;18.598;2023-02-08T00:46:52;10.77;;;6.47;;
57047;SDS011;42934;54.294;18.598;2023-02-08T00:49:23;13.23;;;6.23;;
57047;SDS011;42934;54.294;18.598;2023-02-08T00:51:52;10.98;;;6.47;;
57047;SDS011;42934;54.294;18.598;2023-02-08T00:54:21;10.70;;;5.95;;
57047;SDS011;42934;54.294;18.598;2023-02-08T00:56:50;10.02;;;6.00;;
57047;SDS011;42934;54.294;18.598;2023-02-08T00:59:19;11.48;;;6.43;;
57047;SDS011;42934;54.294;18.598;2023-02-08T01:01:48;9.07;;;5.18;;
57047;SDS011;42934;54.294;18.598;2023-02-08T01:04:18;14.18;;;5.93;;
57047;SDS011;42934;54.294;18.598;2023-02-08T01:06:48;11.25;;;6.57;;
57047;SDS011;42934;54.294;18.598;2023-02-08T01:09:18;10.30;;;5.93;;
57047;SDS011;42934;54.294;18.598;2023-02-08T01:11:48;11.43;;;5.93;;
57047;SDS011;42934;54.294;18.598;2023-02-08T01:14:18;10.75;;;5.50;;
57047;SDS011;42934;54.294;18.598;2023-02-08T01:16:47;9.15;;;5.45;;
57047;SDS011;42934;54.294;18.598;2023-02-08T01:19:16;11.18;;;6.18;;
57047;SDS011;42934;54.294;18.598;2023-02-08T01:21:46;11.65;;;6.30;;
57047;SDS011;42934;54.294;18.598;2023-02-08T01:24:17;9.93;;;6.05;;
57047;SDS011;42934;54.294;18.598;2023-02-08T01:26:46;10.90;;;5.80;;
57047;SDS011;42934;54.294;18.598;2023-02-08T01:29:16;11.82;;;6.57;;
57047;SDS011;42934;54.294;18.598;2023-02-08T01:31:45;12.90;;;7.88;;
57047;SDS011;42934;54.294;18.598;2023-02-08T01:34:14;9.55;;;6.10;;
57047;SDS011;42934;54.294;18.598;2023-02-08T01:36:43;11.10;;;6.15;;
57047;SDS011;42934;54.294;18.598;2023-02-08T01:39:14;11.00;;;6.63;;
57047;SDS011;42934;54.294;18.598;2023-02-08T01:41:43;12.32;;;7.28;;
57047;SDS011;42934;54.294;18.598;2023-02-08T01:47:20;13.85;;;7.20;;
57047;SDS011;42934;54.294;18.598;2023-02-08T01:49:49;10.53;;;6.37;;
57047;SDS011;42934;54.294;18.598;2023-02-08T01:52:19;11.77;;;6.90;;
57047;SDS011;42934;54.294;18.598;2023-02-08T01:54:54;12.02;;;6.55;;
57047;SDS011;42934;54.294;18.598;2023-02-08T01:57:26;14.00;;;7.70;;
57047;SDS011;42934;54.294;18.598;2023-02-08T01:59:57;13.77;;;6.57;;
57047;SDS011;42934;54.294;18.598;2023-02-08T02:02:39;12.02;;;6.60;;
57047;SDS011;42934;54.294;18.598;2023-02-08T02:07:38;10.63;;;6.55;;
57047;SDS011;42934;54.294;18.598;2023-02-08T02:10:11;13.70;;;6.90;;
57047;SDS011;42934;54.294;18.598;2023-02-08T02:12:43;11.82;;;7.30;;
57047;SDS011;42934;54.294;18.598;2023-02-08T02:15:12;14.43;;;7.30;;
57047;SDS011;42934;54.294;18.598;2023-02-08T02:17:41;12.70;;;6.57;;
57047;SDS011;42934;54.294;18.598;2023-02-08T02:20:13;11.57;;;6.70;;
57047;SDS011;42934;54.294;18.598;2023-02-08T02:23:03;14.60;;;7.50;;
57047;SDS011;42934;54.294;18.598;2023-02-08T02:34:44;13.40;;;7.68;;
57047;SDS011;42934;54.294;18.598;2023-02-08T02:37:21;16.38;;;8.23;;
57047;SDS011;42934;54.294;18.598;2023-02-08T02:40:02;17.92;;;8.02;;
57047;SDS011;42934;54.294;18.598;2023-02-08T02:42:40;13.63;;;7.40;;
57047;SDS011;42934;54.294;18.598;2023-02-08T02:45:39;16.48;;;8.18;;
57047;SDS011;42934;54.294;18.598;2023-02-08T02:48:16;17.70;;;9.65;;
57047;SDS011;42934;54.294;18.598;2023-02-08T02:50:55;18.00;;;9.13;;
57047;SDS011;42934;54.294;18.598;2023-02-08T02:53:32;21.23;;;9.95;;
57047;SDS011;42934;54.294;18.598;2023-02-08T02:56:07;19.58;;;9.70;;
57047;SDS011;42934;54.294;18.598;2023-02-08T02:58:41;19.30;;;9.38;;
57047;SDS011;42934;54.294;18.598;2023-02-08T03:01:12;22.35;;;10.05;;
57047;SDS011;42934;54.294;18.598;2023-02-08T03:03:49;18.58;;;10.45;;
57047;SDS011;42934;54.294;18.598;2023-02-08T03:06:21;21.42;;;10.50;;
57047;SDS011;42934;54.294;18.598;2023-02-08T03:09:05;21.42;;;10.73;;
57047;SDS011;42934;54.294;18.598;2023-02-08T03:11:50;17.88;;;10.05;;
57047;SDS011;42934;54.294;18.598;2023-02-08T03:14:33;22.75;;;10.98;;
57047;SDS011;42934;54.294;18.598;2023-02-08T03:17:18;21.88;;;10.90;;
57047;SDS011;42934;54.294;18.598;2023-02-08T03:19:58;27.75;;;12.00;;
57047;SDS011;42934;54.294;18.598;2023-02-08T03:22:40;26.83;;;11.40;;
57047;SDS011;42934;54.294;18.598;2023-02-08T03:25:14;22.58;;;11.18;;
57047;SDS011;42934;54.294;18.598;2023-02-08T03:27:48;26.08;;;11.95;;
57047;SDS011;42934;54.294;18.598;2023-02-08T03:30:27;27.17;;;11.95;;
57047;SDS011;42934;54.294;18.598;2023-02-08T03:33:01;25.52;;;12.55;;
57047;SDS011;42934;54.294;18.598;2023-02-08T03:35:38;21.70;;;11.60;;
57047;SDS011;42934;54.294;18.598;2023-02-08T03:38:14;22.17;;;11.32;;
57047;SDS011;42934;54.294;18.598;2023-02-08T03:40:50;17.70;;;9.98;;
57047;SDS011;42934;54.294;18.598;2023-02-08T03:43:23;27.65;;;12.80;;
57047;SDS011;42934;54.294;18.598;2023-02-08T03:45:57;25.08;;;12.57;;
57047;SDS011;42934;54.294;18.598;2023-02-08T03:48:32;25.42;;;12.35;;
57047;SDS011;42934;54.294;18.598;2023-02-08T03:51:03;22.77;;;11.15;;
57047;SDS011;42934;54.294;18.598;2023-02-08T03:53:36;26.23;;;13.27;;
57047;SDS011;42934;54.294;18.598;2023-02-08T03:56:09;22.25;;;10.65;;
57047;SDS011;42934;54.294;18.598;2023-02-08T03:58:43;25.52;;;11.55;;
57047;SDS011;42934;54.294;18.598;2023-02-08T04:01:17;24.50;;;11.85;;
57047;SDS011;42934;54.294;18.598;2023-02-08T04:03:52;23.70;;;11.27;;
57047;SDS011;42934;54.294;18.598;2023-02-08T04:06:22;24.73;;;12.60;;
57047;SDS011;42934;54.294;18.598;2023-02-08T04:08:53;27.05;;;11.18;;
57047;SDS011;42934;54.294;18.598;2023-02-08T04:11:23;19.95;;;10.48;;
57047;SDS011;42934;54.294;18.598;2023-02-08T04:13:52;21.73;;;10.55;;
57047;SDS011;42934;54.294;18.598;2023-02-08T04:16:21;21.93;;;10.50;;
57047;SDS011;42934;54.294;18.598;2023-02-08T04:18:50;21.55;;;10.68;;
57047;SDS011;42934;54.294;18.598;2023-02-08T04:21:19;22.10;;;10.90;;
57047;SDS011;42934;54.294;18.598;2023-02-08T04:23:48;24.67;;;10.88;;
57047;SDS011;42934;54.294;18.598;2023-02-08T04:26:19;27.17;;;11.40;;
57047;SDS011;42934;54.294;18.598;2023-02-08T04:28:48;22.33;;;11.10;;
57047;SDS011;42934;54.294;18.598;2023-02-08T04:31:17;22.70;;;11.57;;
57047;SDS011;42934;54.294;18.598;2023-02-08T04:33:47;28.75;;;11.52;;
57047;SDS011;42934;54.294;18.598;2023-02-08T04:36:16;22.35;;;10.68;;
57047;SDS011;42934;54.294;18.598;2023-02-08T04:38:45;24.88;;;11.25;;
57047;SDS011;42934;54.294;18.598;2023-02-08T04:41:15;19.70;;;10.02;;
57047;SDS011;42934;54.294;18.598;2023-02-08T04:43:45;21.00;;;10.45;;
57047;SDS011;42934;54.294;18.598;2023-02-08T04:46:15;21.70;;;10.77;;
57047;SDS011;42934;54.294;18.598;2023-02-08T04:48:44;23.45;;;11.15;;
57047;SDS011;42934;54.294;18.598;2023-02-08T04:51:13;24.77;;;11.10;;
57047;SDS011;42934;54.294;18.598;2023-02-08T04:53:42;20.15;;;11.50;;
57047;SDS011;42934;54.294;18.598;2023-02-08T04:56:11;22.73;;;11.50;;
57047;SDS011;42934;54.294;18.598;2023-02-08T04:58:41;21.70;;;11.17;;
57047;SDS011;42934;54.294;18.598;2023-02-08T05:01:11;20.92;;;10.38;;
57047;SDS011;42934;54.294;18.598;2023-02-08T05:03:42;26.17;;;11.65;;
57047;SDS011;42934;54.294;18.598;2023-02-08T05:06:11;23.45;;;10.93;;
57047;SDS011;42934;54.294;18.598;2023-02-08T05:08:40;21.40;;;10.55;;
57047;SDS011;42934;54.294;18.598;2023-02-08T05:11:10;18.43;;;9.80;;
57047;SDS011;42934;54.294;18.598;2023-02-08T05:13:39;21.38;;;11.20;;
57047;SDS011;42934;54.294;18.598;2023-02-08T05:16:08;23.65;;;10.35;;
57047;SDS011;42934;54.294;18.598;2023-02-08T05:18:38;18.55;;;9.73;;
57047;SDS011;42934;54.294;18.598;2023-02-08T05:21:08;21.08;;;10.35;;
57047;SDS011;42934;54.294;18.598;2023-02-08T05:23:37;24.00;;;11.00;;
57047;SDS011;42934;54.294;18.598;2023-02-08T05:26:07;21.05;;;10.07;;
57047;SDS011;42934;54.294;18.598;2023-02-08T05:28:37;21.90;;;10.55;;
57047;SDS011;42934;54.294;18.598;2023-02-08T05:31:08;22.00;;;10.15;;
57047;SDS011;42934;54.294;18.598;2023-02-08T05:33:40;18.77;;;9.15;;
57047;SDS011;42934;54.294;18.598;2023-02-08T05:36:09;20.15;;;9.73;;
57047;SDS011;42934;54.294;18.598;2023-02-08T05:38:39;18.23;;;9.43;;
57047;SDS011;42934;54.294;18.598;2023-02-08T05:41:08;18.60;;;10.13;;
57047;SDS011;42934;54.294;18.598;2023-02-08T05:43:37;17.33;;;9.87;;
57047;SDS011;42934;54.294;18.598;2023-02-08T05:46:07;21.63;;;11.02;;
57047;SDS011;42934;54.294;18.598;2023-02-08T05:48:36;17.02;;;9.73;;
57047;SDS011;42934;54.294;18.598;2023-02-08T05:51:07;19.57;;;9.50;;
57047;SDS011;42934;54.294;18.598;2023-02-08T05:53:36;21.33;;;10.02;;
57047;SDS011;42934;54.294;18.598;2023-02-08T05:56:06;19.10;;;10.38;;
57047;SDS011;42934;54.294;18.598;2023-02-08T05:58:35;21.30;;;10.00;;
57047;SDS011;42934;54.294;18.598;2023-02-08T06:01:06;17.98;;;9.90;;
57047;SDS011;42934;54.294;18.598;2023-02-08T06:03:36;17.10;;;9.70;;
57047;SDS011;42934;54.294;18.598;2023-02-08T06:06:07;16.23;;;10.02;;
57047;SDS011;42934;54.294;18.598;2023-02-08T06:08:37;15.98;;;8.65;;
57047;SDS011;42934;54.294;18.598;2023-02-08T06:11:07;17.25;;;9.73;;
57047;SDS011;42934;54.294;18.598;2023-02-08T06:13:36;16.67;;;8.52;;
57047;SDS011;42934;54.294;18.598;2023-02-08T06:16:06;17.98;;;9.15;;
57047;SDS011;42934;54.294;18.598;2023-02-08T06:18:35;14.93;;;8.03;;
57047;SDS011;42934;54.294;18.598;2023-02-08T06:21:05;16.20;;;8.10;;
57047;SDS011;42934;54.294;18.598;2023-02-08T06:23:35;15.90;;;8.57;;
57047;SDS011;42934;54.294;18.598;2023-02-08T06:26:05;14.07;;;8.32;;
57047;SDS011;42934;54.294;18.598;2023-02-08T06:28:34;14.60;;;8.25;;
57047;SDS011;42934;54.294;18.598;2023-02-08T06:31:04;16.03;;;8.40;;
57047;SDS011;42934;54.294;18.598;2023-02-08T06:33:33;14.90;;;8.02;;
57047;SDS011;42934;54.294;18.598;2023-02-08T06:36:02;17.35;;;9.05;;
57047;SDS011;42934;54.294;18.598;2023-02-08T06:38:33;15.23;;;7.70;;
57047;SDS011;42934;54.294;18.598;2023-02-08T06:41:03;16.33;;;8.30;;
57047;SDS011;42934;54.294;18.598;2023-02-08T06:43:32;15.83;;;9.20;;
57047;SDS011;42934;54.294;18.598;2023-02-08T06:46:02;20.67;;;8.80;;
57047;SDS011;42934;54.294;18.598;2023-02-08T06:48:34;15.77;;;7.80;;
57047;SDS011;42934;54.294;18.598;2023-02-08T06:51:03;16.25;;;8.77;;
57047;SDS011;42934;54.294;18.598;2023-02-08T06:53:34;16.60;;;8.73;;
57047;SDS011;42934;54.294;18.598;2023-02-08T06:56:04;16.30;;;8.57;;
57047;SDS011;42934;54.294;18.598;2023-02-08T06:58:33;15.30;;;8.67;;
57047;SDS011;42934;54.294;18.598;2023-02-08T07:01:04;15.50;;;7.75;;
57047;SDS011;42934;54.294;18.598;2023-02-08T07:03:33;18.13;;;8.57;;
57047;SDS011;42934;54.294;18.598;2023-02-08T07:06:02;18.08;;;9.57;;
57047;SDS011;42934;54.294;18.598;2023-02-08T07:08:31;15.90;;;8.88;;
57047;SDS011;42934;54.294;18.598;2023-02-08T07:11:04;17.17;;;8.13;;
57047;SDS011;42934;54.294;18.598;2023-02-08T07:13:34;21.33;;;9.43;;
57047;SDS011;42934;54.294;18.598;2023-02-08T07:16:05;16.67;;;9.82;;
57047;SDS011;42934;54.294;18.598;2023-02-08T07:18:35;19.05;;;9.75;;
57047;SDS011;42934;54.294;18.598;2023-02-08T07:21:05;20.33;;;10.10;;
57047;SDS011;42934;54.294;18.598;2023-02-08T07:23:35;16.15;;;8.25;;
57047;SDS011;42934;54.294;18.598;2023-02-08T07:26:06;20.75;;;10.35;;
57047;SDS011;42934;54.294;18.598;2023-02-08T07:28:36;20.98;;;9.88;;
57047;SDS011;42934;54.294;18.598;2023-02-08T07:31:06;17.30;;;9.30;;
57047;SDS011;42934;54.294;18.598;2023-02-08T07:33:36;17.73;;;9.48;;
57047;SDS011;42934;54.294;18.598;2023-02-08T07:36:06;18.95;;;10.40;;
57047;SDS011;42934;54.294;18.598;2023-02-08T07:41:07;21.27;;;10.63;;
57047;SDS011;42934;54.294;18.598;2023-02-08T07:43:38;21.27;;;10.32;;
57047;SDS011;42934;54.294;18.598;2023-02-08T07:46:10;21.48;;;11.25;;
57047;SDS011;42934;54.294;18.598;2023-02-08T07:48:41;19.45;;;11.13;;
57047;SDS011;42934;54.294;18.598;2023-02-08T07:51:11;21.15;;;10.48;;
57047;SDS011;42934;54.294;18.598;2023-02-08T07:53:42;22.10;;;11.05;;
57047;SDS011;42934;54.294;18.598;2023-02-08T07:56:11;21.45;;;10.43;;
57047;SDS011;42934;54.294;18.598;2023-02-08T07:58:40;19.80;;;10.20;;
57047;SDS011;42934;54.294;18.598;2023-02-08T08:01:10;23.98;;;11.70;;
57047;SDS011;42934;54.294;18.598;2023-02-08T08:03:48;22.92;;;12.00;;
57047;SDS011;42934;54.294;18.598;2023-02-08T08:06:19;25.23;;;12.77;;
57047;SDS011;42934;54.294;18.598;2023-02-08T08:08:50;22.45;;;11.35;;
57047;SDS011;42934;54.294;18.598;2023-02-08T08:11:20;23.83;;;11.30;;
57047;SDS011;42934;54.294;18.598;2023-02-08T08:13:49;25.23;;;11.30;;
57047;SDS011;42934;54.294;18.598;2023-02-08T08:16:19;20.17;;;9.75;;
57047;SDS011;42934;54.294;18.598;2023-02-08T08:18:48;23.95;;;11.70;;
57047;SDS011;42934;54.294;18.598;2023-02-08T08:21:18;21.42;;;10.52;;
57047;SDS011;42934;54.294;18.598;2023-02-08T08:23:47;28.67;;;12.73;;
57047;SDS011;42934;54.294;18.598;2023-02-08T08:26:18;24.40;;;12.73;;
57047;SDS011;42934;54.294;18.598;2023-02-08T08:28:47;28.38;;;12.75;;
57047;SDS011;42934;54.294;18.598;2023-02-08T08:31:18;26.23;;;12.73;;
57047;SDS011;42934;54.294;18.598;2023-02-08T08:33:49;29.52;;;12.55;;
57047;SDS011;42934;54.294;18.598;2023-02-08T08:36:18;26.07;;;12.40;;
57047;SDS011;42934;54.294;18.598;2023-02-08T08:38:47;23.52;;;11.10;;
57047;SDS011;42934;54.294;18.598;2023-02-08T08:41:18;30.67;;;13.30;;
57047;SDS011;42934;54.294;18.598;2023-02-08T08:43:48;25.45;;;11.73;;
57047;SDS011;42934;54.294;18.598;2023-02-08T08:46:17;30.03;;;13.83;;
57047;SDS011;42934;54.294;18.598;2023-02-08T08:48:47;35.08;;;15.50;;
57047;SDS011;42934;54.294;18.598;2023-02-08T08:51:17;32.83;;;14.77;;
57047;SDS011;42934;54.294;18.598;2023-02-08T08:53:47;25.30;;;12.63;;
57047;SDS011;42934;54.294;18.598;2023-02-08T08:56:18;30.98;;;14.20;;
57047;SDS011;42934;54.294;18.598;2023-02-08T08:58:47;32.42;;;13.68;;
57047;SDS011;42934;54.294;18.598;2023-02-08T09:01:17;27.15;;;13.55;;
57047;SDS011;42934;54.294;18.598;2023-02-08T09:03:46;34.13;;;15.20;;
57047;SDS011;42934;54.294;18.598;2023-02-08T09:06:15;29.33;;;13.50;;
57047;SDS011;42934;54.294;18.598;2023-02-08T09:08:44;27.60;;;12.23;;
57047;SDS011;42934;54.294;18.598;2023-02-08T09:11:19;28.00;;;13.80;;
57047;SDS011;42934;54.294;18.598;2023-02-08T09:13:48;30.42;;;14.35;;
57047;SDS011;42934;54.294;18.598;2023-02-08T09:16:18;28.33;;;14.02;;
57047;SDS011;42934;54.294;18.598;2023-02-08T09:18:48;29.13;;;13.77;;
57047;SDS011;42934;54.294;18.598;2023-02-08T09:21:18;28.73;;;14.20;;
57047;SDS011;42934;54.294;18.598;2023-02-08T09:23:50;30.27;;;14.10;;
57047;SDS011;42934;54.294;18.598;2023-02-08T09:26:21;33.67;;;14.88;;
57047;SDS011;42934;54.294;18.598;2023-02-08T09:28:52;31.33;;;15.48;;
57047;SDS011;42934;54.294;18.598;2023-02-08T09:33:53;30.17;;;14.63;;
57047;SDS011;42934;54.294;18.598;2023-02-08T09:36:23;29.73;;;14.48;;
57047;SDS011;42934;54.294;18.598;2023-02-08T09:38:56;27.67;;;14.20;;
57047;SDS011;42934;54.294;18.598;2023-02-08T09:41:32;28.60;;;15.40;;
57047;SDS011;42934;54.294;18.598;2023-02-08T09:44:17;33.47;;;15.55;;
57047;SDS011;42934;54.294;18.598;2023-02-08T09:46:54;31.38;;;15.50;;
57047;SDS011;42934;54.294;18.598;2023-02-08T09:49:29;33.00;;;15.57;;
57047;SDS011;42934;54.294;18.598;2023-02-08T09:52:01;26.25;;;13.80;;
57047;SDS011;42934;54.294;18.598;2023-02-08T09:54:35;29.13;;;14.95;;
57047;SDS011;42934;54.294;18.598;2023-02-08T09:57:10;27.45;;;14.95;;
57047;SDS011;42934;54.294;18.598;2023-02-08T09:59:45;35.00;;;15.70;;
57047;SDS011;42934;54.294;18.598;2023-02-08T10:02:21;31.67;;;15.90;;
57047;SDS011;42934;54.294;18.598;2023-02-08T10:04:57;33.63;;;15.75;;
57047;SDS011;42934;54.294;18.598;2023-02-08T10:07:28;33.22;;;16.67;;
57047;SDS011;42934;54.294;18.598;2023-02-08T10:09:59;42.17;;;16.52;;
57047;SDS011;42934;54.294;18.598;2023-02-08T10:12:35;31.08;;;16.60;;
57047;SDS011;42934;54.294;18.598;2023-02-08T10:15:15;33.15;;;17.00;;
57047;SDS011;42934;54.294;18.598;2023-02-08T10:21:02;35.08;;;17.50;;
57047;SDS011;42934;54.294;18.598;2023-02-08T10:23:46;34.05;;;17.20;;
57047;SDS011;42934;54.294;18.598;2023-02-08T10:26:41;34.25;;;17.83;;
57047;SDS011;42934;54.294;18.598;2023-02-08T10:29:24;34.63;;;17.67;;
57047;SDS011;42934;54.294;18.598;2023-02-08T10:32:14;38.88;;;17.92;;
57047;SDS011;42934;54.294;18.598;2023-02-08T10:35:01;39.08;;;18.65;;
57047;SDS011;42934;54.294;18.598;2023-02-08T10:37:43;37.13;;;18.95;;
57047;SDS011;42934;54.294;18.598;2023-02-08T10:40:23;37.58;;;18.45;;
57047;SDS011;42934;54.294;18.598;2023-02-08T10:43:01;34.47;;;18.25;;
57047;SDS011;42934;54.294;18.598;2023-02-08T10:45:50;40.72;;;19.92;;
57047;SDS011;42934;54.294;18.598;2023-02-08T10:48:27;36.75;;;18.70;;
57047;SDS011;42934;54.294;18.598;2023-02-08T10:51:08;34.45;;;17.92;;
57047;SDS011;42934;54.294;18.598;2023-02-08T10:53:49;33.80;;;17.77;;
57047;SDS011;42934;54.294;18.598;2023-02-08T10:56:36;34.88;;;17.85;;
57047;SDS011;42934;54.294;18.598;2023-02-08T10:59:13;40.17;;;19.30;;
57047;SDS011;42934;54.294;18.598;2023-02-08T11:01:50;43.17;;;19.58;;
57047;SDS011;42934;54.294;18.598;2023-02-08T11:04:21;36.65;;;17.77;;
57047;SDS011;42934;54.294;18.598;2023-02-08T11:06:52;44.72;;;21.45;;
57047;SDS011;42934;54.294;18.598;2023-02-08T11:09:24;41.85;;;21.10;;
57047;SDS011;42934;54.294;18.598;2023-02-08T11:11:56;38.50;;;18.15;;
57047;SDS011;42934;54.294;18.598;2023-02-08T11:14:33;45.08;;;21.00;;
57047;SDS011;42934;54.294;18.598;2023-02-08T11:17:23;41.25;;;21.02;;
57047;SDS011;42934;54.294;18.598;2023-02-08T11:19:54;39.75;;;20.45;;
57047;SDS011;42934;54.294;18.598;2023-02-08T11:22:27;42.00;;;21.00;;
57047;SDS011;42934;54.294;18.598;2023-02-08T11:24:59;43.90;;;20.90;;
57047;SDS011;42934;54.294;18.598;2023-02-08T11:27:30;41.17;;;20.33;;
57047;SDS011;42934;54.294;18.598;2023-02-08T11:30:15;40.78;;;20.67;;
57047;SDS011;42934;54.294;18.598;2023-02-08T11:35:51;41.50;;;20.80;;
57047;SDS011;42934;54.294;18.598;2023-02-08T11:38:30;38.03;;;16.88;;
57047;SDS011;42934;54.294;18.598;2023-02-08T11:41:15;38.83;;;19.58;;
57047;SDS011;42934;54.294;18.598;2023-02-08T11:43:54;41.20;;;20.48;;
57047;SDS011;42934;54.294;18.598;2023-02-08T11:46:27;37.50;;;20.42;;
57047;SDS011;42934;54.294;18.598;2023-02-08T11:49:01;40.88;;;19.92;;
57047;SDS011;42934;54.294;18.598;2023-02-08T11:51:31;39.70;;;20.17;;
57047;SDS011;42934;54.294;18.598;2023-02-08T11:54:03;39.88;;;20.65;;
57047;SDS011;42934;54.294;18.598;2023-02-08T11:59:04;38.47;;;18.58;;
57047;SDS011;42934;54.294;18.598;2023-02-08T12:01:45;34.58;;;18.15;;
57047;SDS011;42934;54.294;18.598;2023-02-08T12:04:16;32.00;;;18.10;;
57047;SDS011;42934;54.294;18.598;2023-02-08T12:06:51;33.95;;;18.05;;
57047;SDS011;42934;54.294;18.598;2023-02-08T12:09:40;33.47;;;17.58;;
57047;SDS011;42934;54.294;18.598;2023-02-08T12:12:33;36.08;;;18.40;;
57047;SDS011;42934;54.294;18.598;2023-02-08T12:15:14;32.40;;;16.27;;
57047;SDS011;42934;54.294;18.598;2023-02-08T12:17:56;31.48;;;16.13;;
57047;SDS011;42934;54.294;18.598;2023-02-08T12:20:40;32.33;;;17.05;;
57047;SDS011;42934;54.294;18.598;2023-02-08T12:26:13;29.52;;;15.82;;
57047;SDS011;42934;54.294;18.598;2023-02-08T12:28:51;34.33;;;15.95;;
57047;SDS011;42934;54.294;18.598;2023-02-08T12:31:41;32.45;;;16.63;;
57047;SDS011;42934;54.294;18.598;2023-02-08T12:34:26;33.13;;;16.77;;
57047;SDS011;42934;54.294;18.598;2023-02-08T12:37:18;34.38;;;16.08;;
57047;SDS011;42934;54.294;18.598;2023-02-08T12:40:20;34.10;;;16.63;;
57047;SDS011;42934;54.294;18.598;2023-02-08T12:43:29;36.63;;;16.63;;
57047;SDS011;42934;54.294;18.598;2023-02-08T12:46:14;37.65;;;18.10;;
57047;SDS011;42934;54.294;18.598;2023-02-08T12:48:57;34.75;;;17.20;;
57047;SDS011;42934;54.294;18.598;2023-02-08T12:51:41;33.30;;;16.92;;
57047;SDS011;42934;54.294;18.598;2023-02-08T12:54:25;33.67;;;17.80;;
57047;SDS011;42934;54.294;18.598;2023-02-08T12:57:00;40.38;;;18.40;;
57047;SDS011;42934;54.294;18.598;2023-02-08T12:59:32;36.33;;;18.00;;
57047;SDS011;42934;54.294;18.598;2023-02-08T13:02:09;32.28;;;16.83;;
57047;SDS011;42934;54.294;18.598;2023-02-08T13:04:45;37.97;;;18.15;;
57047;SDS011;42934;54.294;18.598;2023-02-08T13:07:17;36.38;;;18.13;;
57047;SDS011;42934;54.294;18.598;2023-02-08T13:09:54;35.42;;;17.83;;
57047;SDS011;42934;54.294;18.598;2023-02-08T13:12:29;36.97;;;17.27;;
57047;SDS011;42934;54.294;18.598;2023-02-08T13:15:06;37.35;;;18.17;;
57047;SDS011;42934;54.294;18.598;2023-02-08T13:17:56;41.50;;;18.63;;
57047;SDS011;42934;54.294;18.598;2023-02-08T13:20:28;41.05;;;19.52;;
57047;SDS011;42934;54.294;18.598;2023-02-08T13:23:06;42.05;;;19.88;;
57047;SDS011;42934;54.294;18.598;2023-02-08T13:25:44;41.60;;;19.05;;
57047;SDS011;42934;54.294;18.598;2023-02-08T13:28:17;41.97;;;20.30;;
57047;SDS011;42934;54.294;18.598;2023-02-08T13:30:53;45.25;;;21.02;;
57047;SDS011;42934;54.294;18.598;2023-02-08T13:33:30;41.67;;;19.83;;
57047;SDS011;42934;54.294;18.598;2023-02-08T13:36:27;39.72;;;18.67;;
57047;SDS011;42934;54.294;18.598;2023-02-08T13:39:00;41.88;;;19.33;;
57047;SDS011;42934;54.294;18.598;2023-02-08T13:41:33;42.25;;;19.33;;
57047;SDS011;42934;54.294;18.598;2023-02-08T13:44:04;42.60;;;20.67;;
57047;SDS011;42934;54.294;18.598;2023-02-08T13:46:36;36.75;;;19.20;;
57047;SDS011;42934;54.294;18.598;2023-02-08T13:52:10;38.33;;;18.02;;
57047;SDS011;42934;54.294;18.598;2023-02-08T14:01:33;39.83;;;19.67;;
57047;SDS011;42934;54.294;18.598;2023-02-08T14:07:12;46.40;;;18.02;;
57047;SDS011;42934;54.294;18.598;2023-02-08T14:09:57;41.42;;;19.10;;
57047;SDS011;42934;54.294;18.598;2023-02-08T14:12:44;46.20;;;19.80;;
57047;SDS011;42934;54.294;18.598;2023-02-08T14:15:30;45.80;;;20.65;;
57047;SDS011;42934;54.294;18.598;2023-02-08T14:18:18;39.80;;;18.95;;
57047;SDS011;42934;54.294;18.598;2023-02-08T14:20:58;42.13;;;20.10;;
57047;SDS011;42934;54.294;18.598;2023-02-08T14:23:32;45.60;;;20.92;;
57047;SDS011;42934;54.294;18.598;2023-02-08T14:26:07;40.03;;;19.25;;
57047;SDS011;42934;54.294;18.598;2023-02-08T14:28:52;41.50;;;19.42;;
57047;SDS011;42934;54.294;18.598;2023-02-08T14:31:34;42.45;;;21.08;;
57047;SDS011;42934;54.294;18.598;2023-02-08T14:34:17;46.25;;;21.50;;
57047;SDS011;42934;54.294;18.598;2023-02-08T14:36:57;44.15;;;20.48;;
57047;SDS011;42934;54.294;18.598;2023-02-08T14:39:29;41.65;;;18.42;;
57047;SDS011;42934;54.294;18.598;2023-02-08T14:42:00;47.88;;;20.63;;
57047;SDS011;42934;54.294;18.598;2023-02-08T14:50:26;44.97;;;20.05;;
57047;SDS011;42934;54.294;18.598;2023-02-08T14:53:04;48.47;;;21.38;;
57047;SDS011;42934;54.294;18.598;2023-02-08T14:55:45;46.42;;;19.88;;
57047;SDS011;42934;54.294;18.598;2023-02-08T14:58:21;46.88;;;21.35;;
57047;SDS011;42934;54.294;18.598;2023-02-08T15:00:59;47.40;;;22.07;;
57047;SDS011;42934;54.294;18.598;2023-02-08T15:03:32;47.38;;;20.15;;
57047;SDS011;42934;54.294;18.598;2023-02-08T15:09:28;48.08;;;22.10;;
57047;SDS011;42934;54.294;18.598;2023-02-08T15:12:03;47.30;;;20.85;;
57047;SDS011;42934;54.294;18.598;2023-02-08T15:14:35;51.10;;;22.45;;
57047;SDS011;42934;54.294;18.598;2023-02-08T15:17:14;46.95;;;22.17;;
57047;SDS011;42934;54.294;18.598;2023-02-08T15:19:49;51.13;;;21.40;;
57047;SDS011;42934;54.294;18.598;2023-02-08T15:22:26;46.65;;;20.40;;
57047;SDS011;42934;54.294;18.598;2023-02-08T15:25:09;52.08;;;23.23;;
57047;SDS011;42934;54.294;18.598;2023-02-08T15:27:49;46.88;;;21.98;;
57047;SDS011;42934;54.294;18.598;2023-02-08T15:30:30;51.75;;;22.38;;
57047;SDS011;42934;54.294;18.598;2023-02-08T15:33:01;54.50;;;22.35;;
57047;SDS011;42934;54.294;18.598;2023-02-08T15:35:35;48.28;;;22.02;;
57047;SDS011;42934;54.294;18.598;2023-02-08T15:38:08;49.07;;;21.57;;
57047;SDS011;42934;54.294;18.598;2023-02-08T15:40:44;47.95;;;21.48;;
57047;SDS011;42934;54.294;18.598;2023-02-08T15:43:28;52.85;;;20.92;;
57047;SDS011;42934;54.294;18.598;2023-02-08T15:45:58;52.10;;;23.10;;